createdAt,value
2023-05-10T00:00:06.350Z,4420.00
2023-05-10T00:01:06.388Z,4402.00
2023-05-10T00:02:06.487Z,4418.00
2023-05-10T00:03:06.679Z,4409.00
2023-05-10T00:04:06.569Z,4418.00
2023-05-10T00:05:06.640Z,4410.00
2023-05-10T00:06:06.687Z,4396.00
2023-05-10T00:07:06.813Z,4402.00
2023-05-10T00:08:06.888Z,4397.00
2023-05-10T00:09:06.867Z,4393.00
2023-05-10T00:10:06.950Z,4388.00
2023-05-10T00:11:07.059Z,4380.00
2023-05-10T00:12:07.091Z,4386.00
2023-05-10T00:13:07.177Z,4378.00
2023-05-10T00:14:07.205Z,4387.00
2023-05-10T00:15:07.265Z,4381.00
2023-05-10T00:16:07.369Z,4379.00
2023-05-10T00:17:07.329Z,4374.00
2023-05-10T00:18:07.547Z,4375.00
2023-05-10T00:19:07.533Z,4367.00
2023-05-10T00:20:07.564Z,4364.00
2023-05-10T00:21:07.667Z,4366.00
2023-05-10T00:22:07.712Z,4362.00
2023-05-10T00:23:07.719Z,4353.00
2023-05-10T00:24:07.795Z,4358.00
2023-05-10T00:25:07.875Z,4369.00
2023-05-10T00:26:07.990Z,4350.00
2023-05-10T00:27:08.011Z,4350.00
2023-05-10T00:28:08.069Z,4338.00
2023-05-10T00:29:08.251Z,4328.00
2023-05-10T00:30:08.199Z,4343.00
2023-05-10T00:31:08.238Z,4343.00
2023-05-10T00:32:08.421Z,4333.00
2023-05-10T00:33:08.446Z,4340.00
2023-05-10T00:34:08.459Z,4330.00
2023-05-10T00:35:08.489Z,4325.00
2023-05-10T00:36:08.550Z,4336.00
2023-05-10T00:37:08.614Z,4317.00
2023-05-10T00:38:08.691Z,4321.00
2023-05-10T00:39:08.725Z,4317.00
2023-05-10T00:40:08.797Z,4321.00
2023-05-10T00:41:08.882Z,4307.00
2023-05-10T00:42:08.940Z,4302.00
2023-05-10T00:43:09.028Z,4305.00
2023-05-10T00:44:09.025Z,4288.00
2023-05-10T00:45:09.120Z,4302.00
2023-05-10T00:46:09.217Z,4298.00
2023-05-10T00:47:09.234Z,4291.00
2023-05-10T00:48:09.302Z,4297.00
2023-05-10T00:49:09.336Z,4293.00
2023-05-10T00:50:09.405Z,4285.00
2023-05-10T00:51:09.491Z,4296.00
2023-05-10T00:52:09.519Z,4285.00
2023-05-10T00:53:09.606Z,4281.00
2023-05-10T00:54:09.662Z,4274.00
2023-05-10T00:55:09.854Z,4275.00
2023-05-10T00:56:09.839Z,4272.00
2023-05-10T00:57:09.909Z,4271.00
2023-05-10T00:58:09.950Z,4263.00
2023-05-10T00:59:09.983Z,4269.00
2023-05-10T01:00:10.076Z,4262.00
2023-05-10T01:01:10.158Z,4252.00
2023-05-10T01:02:10.206Z,4268.00
2023-05-10T01:03:10.327Z,4252.00
2023-05-10T01:04:10.312Z,4247.00
2023-05-10T01:05:10.401Z,4254.00
2023-05-10T01:06:10.422Z,4260.00
2023-05-10T01:07:10.539Z,4251.00
2023-05-10T01:08:10.602Z,4250.00
2023-05-10T01:09:10.602Z,4231.00
2023-05-10T01:10:10.705Z,4228.00
2023-05-10T01:11:10.761Z,4234.00
2023-05-10T01:12:10.842Z,4237.00
2023-05-10T01:13:10.971Z,4228.00
2023-05-10T01:14:10.887Z,4231.00
2023-05-10T01:15:10.994Z,4225.00
2023-05-10T01:16:11.052Z,4228.00
2023-05-10T01:17:11.060Z,4210.00
2023-05-10T01:18:11.110Z,4225.00
2023-05-10T01:19:11.232Z,4217.00
2023-05-10T01:20:11.251Z,4225.00
2023-05-10T01:21:11.298Z,4203.00
2023-05-10T01:22:11.337Z,4196.00
2023-05-10T01:23:11.406Z,4213.00
2023-05-10T01:24:11.497Z,4213.00
2023-05-10T01:25:11.532Z,4200.00
2023-05-10T01:26:11.582Z,4195.00
2023-05-10T01:27:11.685Z,4205.00
2023-05-10T01:28:11.753Z,4202.00
2023-05-10T01:29:11.783Z,4198.00
2023-05-10T01:30:15.830Z,4192.00
2023-05-10T01:31:12.932Z,4193.00
2023-05-10T01:32:11.849Z,4194.00
2023-05-10T01:33:11.837Z,4196.00
2023-05-10T01:34:11.805Z,4201.00
2023-05-10T01:35:11.842Z,4190.00
2023-05-10T01:36:11.800Z,4193.00
2023-05-10T01:37:11.799Z,4185.00
2023-05-10T01:38:11.794Z,4192.00
2023-05-10T01:39:11.875Z,4190.00
2023-05-10T01:40:11.889Z,4185.00
2023-05-10T01:41:11.952Z,4176.00
2023-05-10T01:42:12.038Z,4184.00
2023-05-10T01:43:12.108Z,4172.00
2023-05-10T01:44:12.165Z,4165.00
2023-05-10T01:45:12.250Z,4166.00
2023-05-10T01:46:12.320Z,4167.00
2023-05-10T01:47:12.343Z,4165.00
2023-05-10T01:48:12.427Z,4163.00
2023-05-10T01:49:12.460Z,4158.00
2023-05-10T01:50:12.477Z,4150.00
2023-05-10T01:51:12.523Z,4156.00
2023-05-10T01:52:12.616Z,4160.00
2023-05-10T01:53:12.678Z,4136.00
2023-05-10T01:54:12.715Z,4149.00
2023-05-10T01:55:12.827Z,4141.00
2023-05-10T01:56:12.810Z,4141.00
2023-05-10T01:57:12.917Z,4147.00
2023-05-10T01:58:12.965Z,4145.00
2023-05-10T01:59:13.030Z,4132.00
2023-05-10T02:00:13.052Z,4141.00
2023-05-10T02:01:13.260Z,4124.00
2023-05-10T02:02:13.334Z,4129.00
2023-05-10T02:03:13.376Z,4124.00
2023-05-10T02:04:13.333Z,4129.00
2023-05-10T02:05:13.331Z,4122.00
2023-05-10T02:06:13.383Z,4113.00
2023-05-10T02:07:13.458Z,4111.00
2023-05-10T02:08:13.538Z,4115.00
2023-05-10T02:09:13.564Z,4122.00
2023-05-10T02:10:13.812Z,4103.00
2023-05-10T02:11:13.666Z,4114.00
2023-05-10T02:12:13.748Z,4095.00
2023-05-10T02:13:13.914Z,4111.00
2023-05-10T02:14:13.850Z,4098.00
2023-05-10T02:15:13.846Z,4085.00
2023-05-10T02:16:14.021Z,4102.00
2023-05-10T02:17:13.976Z,4088.00
2023-05-10T02:18:14.018Z,4082.00
2023-05-10T02:19:14.050Z,4084.00
2023-05-10T02:20:14.291Z,4083.00
2023-05-10T02:21:14.218Z,4074.00
2023-05-10T02:22:14.249Z,4072.00
2023-05-10T02:23:14.327Z,4082.00
2023-05-10T02:24:14.432Z,4070.00
2023-05-10T02:25:14.401Z,4068.00
2023-05-10T02:26:14.448Z,4065.00
2023-05-10T02:27:14.520Z,4057.00
2023-05-10T02:28:14.599Z,4058.00
2023-05-10T02:29:14.630Z,4057.00
2023-05-10T02:30:14.842Z,4055.00
2023-05-10T02:31:14.734Z,4066.00
2023-05-10T02:32:14.818Z,4062.00
2023-05-10T02:33:14.911Z,4048.00
2023-05-10T02:34:15.123Z,4041.00
2023-05-10T02:35:15.017Z,4047.00
2023-05-10T02:36:15.053Z,4034.00
2023-05-10T02:37:15.147Z,4037.00
2023-05-10T02:38:15.198Z,4027.00
2023-05-10T02:39:15.242Z,4037.00
2023-05-10T02:40:15.682Z,4028.00
2023-05-10T02:41:15.382Z,4021.00
2023-05-10T02:42:15.402Z,4019.00
2023-05-10T02:43:15.479Z,4021.00
2023-05-10T02:44:15.523Z,4022.00
2023-05-10T02:45:15.599Z,4015.00
2023-05-10T02:46:15.698Z,4007.00
2023-05-10T02:47:15.723Z,4022.00
2023-05-10T02:48:15.764Z,4010.00
2023-05-10T02:49:15.772Z,3998.00
2023-05-10T02:50:16.037Z,3999.00
2023-05-10T02:51:15.874Z,4004.00
2023-05-10T02:52:15.898Z,4006.00
2023-05-10T02:53:16.017Z,3991.00
2023-05-10T02:54:15.972Z,3992.00
2023-05-10T02:55:16.013Z,3990.00
2023-05-10T02:56:16.088Z,3987.00
2023-05-10T02:57:16.088Z,3990.00
2023-05-10T02:58:16.103Z,3984.00
2023-05-10T02:59:16.165Z,3971.00
2023-05-10T03:00:16.486Z,3990.00
2023-05-10T03:01:16.320Z,3967.00
2023-05-10T03:02:16.289Z,3975.00
2023-05-10T03:03:16.387Z,3975.00
2023-05-10T03:04:16.465Z,3952.00
2023-05-10T03:05:16.425Z,3968.00
2023-05-10T03:06:16.454Z,3966.00
2023-05-10T03:07:16.495Z,3966.00
2023-05-10T03:08:16.527Z,3954.00
2023-05-10T03:09:16.695Z,3958.00
2023-05-10T03:10:16.985Z,3955.00
2023-05-10T03:11:16.663Z,3953.00
2023-05-10T03:12:16.721Z,3950.00
2023-05-10T03:13:16.814Z,3936.00
2023-05-10T03:14:16.774Z,3944.00
2023-05-10T03:15:16.784Z,3954.00
2023-05-10T03:16:16.862Z,3939.00
2023-05-10T03:17:16.877Z,3946.00
2023-05-10T03:18:16.916Z,3937.00
2023-05-10T03:19:16.962Z,3938.00
2023-05-10T03:20:17.346Z,3928.00
2023-05-10T03:21:16.999Z,3925.00
2023-05-10T03:22:17.086Z,3923.00
2023-05-10T03:23:17.155Z,3935.00
2023-05-10T03:24:17.201Z,3916.00
2023-05-10T03:25:17.209Z,3927.00
2023-05-10T03:26:17.224Z,3920.00
2023-05-10T03:27:17.335Z,3918.00
2023-05-10T03:28:17.338Z,3914.00
2023-05-10T03:29:17.334Z,3914.00
2023-05-10T03:30:17.750Z,3920.00
2023-05-10T03:31:17.439Z,3904.00
2023-05-10T03:32:17.428Z,3912.00
2023-05-10T03:33:17.460Z,3897.00
2023-05-10T03:34:17.511Z,3902.00
2023-05-10T03:35:17.589Z,3896.00
2023-05-10T03:36:17.599Z,3887.00
2023-05-10T03:37:17.636Z,3882.00
2023-05-10T03:38:17.692Z,3886.00
2023-05-10T03:39:17.708Z,3872.00
2023-05-10T03:40:18.011Z,3881.00
2023-05-10T03:41:17.787Z,3875.00
2023-05-10T03:42:17.842Z,3876.00
2023-05-10T03:43:17.841Z,3874.00
2023-05-10T03:44:17.921Z,3863.00
2023-05-10T03:45:17.920Z,3870.00
2023-05-10T03:46:18.036Z,3864.00
2023-05-10T03:47:17.995Z,3872.00
2023-05-10T03:48:18.042Z,3857.00
2023-05-10T03:49:18.092Z,3859.00
2023-05-10T03:50:18.347Z,3855.00
2023-05-10T03:51:18.179Z,3842.00
2023-05-10T03:52:18.243Z,3861.00
2023-05-10T03:53:18.277Z,3850.00
2023-05-10T03:54:18.324Z,3855.00
2023-05-10T03:55:18.326Z,3852.00
2023-05-10T03:56:18.403Z,3862.00
2023-05-10T03:57:18.385Z,3846.00
2023-05-10T03:58:18.409Z,3838.00
2023-05-10T03:59:18.461Z,3826.00
2023-05-10T04:00:18.728Z,3838.00
2023-05-10T04:01:18.581Z,3840.00
2023-05-10T04:02:18.591Z,3828.00
2023-05-10T04:03:18.751Z,3823.00
2023-05-10T04:04:18.710Z,3759.00
2023-05-10T04:05:18.720Z,3718.00
2023-05-10T04:06:18.872Z,3682.00
2023-05-10T04:07:18.781Z,3653.00
2023-05-10T04:08:18.786Z,3550.00
2023-05-10T04:09:18.840Z,3520.00
2023-05-10T04:10:19.166Z,3476.00
2023-05-10T04:11:18.905Z,3453.00
2023-05-10T04:12:18.969Z,3450.00
2023-05-10T04:13:19.031Z,3452.00
2023-05-10T04:14:19.040Z,3454.00
2023-05-10T04:15:19.088Z,3460.00
2023-05-10T04:16:19.136Z,3473.00
2023-05-10T04:17:19.209Z,3494.00
2023-05-10T04:18:19.158Z,3504.00
2023-05-10T04:19:19.218Z,3520.00
2023-05-10T04:20:19.371Z,3526.00
2023-05-10T04:21:19.304Z,3530.00
2023-05-10T04:22:19.341Z,3530.00
2023-05-10T04:23:19.406Z,3546.00
2023-05-10T04:24:19.450Z,3541.00
2023-05-10T04:25:19.522Z,3556.00
2023-05-10T04:26:19.650Z,3555.00
2023-05-10T04:27:19.634Z,3550.00
2023-05-10T04:28:19.680Z,3538.00
2023-05-10T04:29:19.759Z,3498.00
2023-05-10T04:30:19.720Z,3488.00
2023-05-10T04:31:19.910Z,3519.00
2023-05-10T04:32:19.826Z,3535.00
2023-05-10T04:33:19.841Z,3553.00
2023-05-10T04:34:19.834Z,3554.00
2023-05-10T04:35:19.912Z,3563.00
2023-05-10T04:36:19.894Z,3571.00
2023-05-10T04:37:19.911Z,3558.00
2023-05-10T04:38:19.918Z,3553.00
2023-05-10T04:39:19.934Z,3545.00
2023-05-10T04:40:19.930Z,3546.00
2023-05-10T04:41:19.928Z,3558.00
2023-05-10T04:42:19.997Z,3561.00
2023-05-10T04:43:19.995Z,3557.00
2023-05-10T04:44:19.974Z,3574.00
2023-05-10T04:45:20.006Z,3567.00
2023-05-10T04:46:20.039Z,3577.00
2023-05-10T04:47:20.064Z,3583.00
2023-05-10T04:48:20.030Z,3596.00
2023-05-10T04:49:20.031Z,3611.00
2023-05-10T04:50:20.045Z,3598.00
2023-05-10T04:51:20.050Z,3612.00
2023-05-10T04:52:20.018Z,3610.00
2023-05-10T04:53:20.046Z,3634.00
2023-05-10T04:54:20.069Z,3627.00
2023-05-10T04:55:20.077Z,3634.00
2023-05-10T04:56:20.083Z,3628.00
2023-05-10T04:57:20.036Z,3623.00
2023-05-10T04:58:20.057Z,3602.00
2023-05-10T04:59:20.061Z,3612.00
2023-05-10T05:00:20.060Z,3609.00
2023-05-10T05:01:20.146Z,3621.00
2023-05-10T05:02:20.117Z,3618.00
2023-05-10T05:03:20.126Z,3614.00
2023-05-10T05:04:20.095Z,3616.00
2023-05-10T05:05:20.100Z,3623.00
2023-05-10T05:06:20.153Z,3678.00
2023-05-10T05:07:20.217Z,3680.00
2023-05-10T05:08:20.162Z,3686.00
2023-05-10T05:09:20.230Z,3684.00
2023-05-10T05:10:20.358Z,3660.00
2023-05-10T05:11:20.296Z,3681.00
2023-05-10T05:12:20.326Z,3685.00
2023-05-10T05:13:20.373Z,3652.00
2023-05-10T05:14:20.370Z,3642.00
2023-05-10T05:15:20.423Z,3659.00
2023-05-10T05:16:20.480Z,3665.00
2023-05-10T05:17:20.492Z,3652.00
2023-05-10T05:18:20.534Z,3649.00
2023-05-10T05:19:20.549Z,3643.00
2023-05-10T05:20:20.611Z,3675.00
2023-05-10T05:21:20.622Z,3668.00
2023-05-10T05:22:20.658Z,3651.00
2023-05-10T05:23:20.672Z,3649.00
2023-05-10T05:24:20.743Z,3630.00
2023-05-10T05:25:20.781Z,3623.00
2023-05-10T05:26:20.834Z,3630.00
2023-05-10T05:27:20.902Z,3606.00
2023-05-10T05:28:20.929Z,3605.00
2023-05-10T05:29:21.043Z,3575.00
2023-05-10T05:30:21.131Z,3603.00
2023-05-10T05:31:21.160Z,3630.00
2023-05-10T05:32:21.186Z,3654.00
2023-05-10T05:33:21.214Z,3691.00
2023-05-10T05:34:21.226Z,3723.00
2023-05-10T05:35:21.244Z,3716.00
2023-05-10T05:36:21.337Z,3722.00
2023-05-10T05:37:21.389Z,3687.00
2023-05-10T05:38:21.451Z,3653.00
2023-05-10T05:39:21.420Z,3612.00
2023-05-10T05:40:21.515Z,3561.00
2023-05-10T05:41:21.516Z,3571.00
2023-05-10T05:42:21.575Z,3521.00
2023-05-10T05:43:21.591Z,3541.00
2023-05-10T05:44:21.630Z,3445.00
2023-05-10T05:45:21.683Z,3397.00
2023-05-10T05:46:21.738Z,3392.00
2023-05-10T05:47:21.834Z,3388.00
2023-05-10T05:48:21.774Z,3516.00
2023-05-10T05:49:21.834Z,3651.00
2023-05-10T05:50:21.810Z,3627.00
2023-05-10T05:51:21.826Z,3592.00
2023-05-10T05:52:21.871Z,3533.00
2023-05-10T05:53:21.941Z,3451.00
2023-05-10T05:54:21.877Z,3417.00
2023-05-10T05:55:21.922Z,3310.00
2023-05-10T05:56:21.932Z,3316.00
2023-05-10T05:57:21.944Z,3259.00
2023-05-10T05:58:21.933Z,3237.00
2023-05-10T05:59:21.910Z,3224.00
2023-05-10T06:00:21.963Z,3166.00
2023-05-10T06:01:22.377Z,3206.00
2023-05-10T06:02:22.024Z,3097.00
2023-05-10T06:03:22.047Z,3119.00
2023-05-10T06:04:22.089Z,3022.00
2023-05-10T06:05:21.953Z,3143.00
2023-05-10T06:06:22.372Z,3229.00
2023-05-10T06:07:21.925Z,3128.00
2023-05-10T06:08:21.927Z,3118.00
2023-05-10T06:09:22.428Z,3081.00
2023-05-10T06:10:21.949Z,3076.00
2023-05-10T06:11:22.453Z,3036.00
2023-05-10T06:12:21.887Z,2986.00
2023-05-10T06:13:21.967Z,2957.00
2023-05-10T06:14:21.937Z,3015.00
2023-05-10T06:15:21.941Z,3009.00
2023-05-10T06:16:21.950Z,3028.00
2023-05-10T06:17:21.925Z,3036.00
2023-05-10T06:18:21.928Z,3019.00
2023-05-10T06:19:21.929Z,3026.00
2023-05-10T06:20:21.945Z,3037.00
2023-05-10T06:21:21.913Z,3044.00
2023-05-10T06:22:22.056Z,3063.00
2023-05-10T06:23:22.006Z,3052.00
2023-05-10T06:24:22.024Z,3059.00
2023-05-10T06:25:22.055Z,3088.00
2023-05-10T06:26:22.145Z,3082.00
2023-05-10T06:27:22.144Z,3078.00
2023-05-10T06:28:22.342Z,3078.00
2023-05-10T06:29:23.225Z,3106.00
2023-05-10T06:30:22.262Z,3103.00
2023-05-10T06:31:22.356Z,3103.00
2023-05-10T06:32:22.393Z,3126.00
2023-05-10T06:33:22.414Z,3220.00
2023-05-10T06:34:22.502Z,3217.00
2023-05-10T06:35:22.527Z,3254.00
2023-05-10T06:36:22.558Z,3389.00
2023-05-10T06:37:22.590Z,3467.00
2023-05-10T06:38:22.572Z,3581.00
2023-05-10T06:39:22.924Z,3664.00
2023-05-10T06:40:22.589Z,3630.00
2023-05-10T06:41:24.616Z,3543.00
2023-05-10T06:42:22.552Z,3349.00
2023-05-10T06:43:22.575Z,3323.00
2023-05-10T06:44:22.572Z,3331.00
2023-05-10T06:45:22.571Z,3389.00
2023-05-10T06:46:22.836Z,3393.00
2023-05-10T06:47:22.582Z,3368.00
2023-05-10T06:48:22.706Z,3363.00
2023-05-10T06:49:22.866Z,3306.00
2023-05-10T06:50:22.605Z,3299.00
2023-05-10T06:51:22.673Z,3290.00
2023-05-10T06:52:22.619Z,3306.00
2023-05-10T06:53:22.666Z,3324.00
2023-05-10T06:54:22.700Z,3314.00
2023-05-10T06:55:22.748Z,3333.00
2023-05-10T06:56:22.871Z,3323.00
2023-05-10T06:57:31.097Z,3331.00
2023-05-10T06:58:23.884Z,3331.00
2023-05-10T06:59:22.885Z,3267.00
2023-05-10T07:00:22.998Z,3222.00
2023-05-10T07:01:23.039Z,3233.00
2023-05-10T07:02:22.993Z,3238.00
2023-05-10T07:03:23.447Z,3226.00
2023-05-10T07:04:22.914Z,3229.00
2023-05-10T07:05:22.984Z,3219.00
2023-05-10T07:06:32.989Z,3230.00
2023-05-10T07:07:23.789Z,3232.00
2023-05-10T07:08:22.781Z,3244.00
2023-05-10T07:09:22.879Z,3255.00
2023-05-10T07:10:22.896Z,3259.00
2023-05-10T07:11:22.781Z,3297.00
2023-05-10T07:12:22.809Z,3322.00
2023-05-10T07:13:22.865Z,3382.00
2023-05-10T07:14:22.794Z,3410.00
2023-05-10T07:15:22.894Z,3432.00
2023-05-10T07:16:23.040Z,3443.00
2023-05-10T07:17:23.030Z,3443.00
2023-05-10T07:18:23.104Z,3431.00
2023-05-10T07:19:23.050Z,3430.00
2023-05-10T07:20:23.176Z,3444.00
2023-05-10T07:21:23.195Z,3481.00
2023-05-10T07:22:23.398Z,3491.00
2023-05-10T07:23:23.332Z,3531.00
2023-05-10T07:24:23.363Z,3508.00
2023-05-10T07:25:23.470Z,3506.00
2023-05-10T07:26:23.478Z,3535.00
2023-05-10T07:27:23.552Z,3530.00
2023-05-10T07:28:23.696Z,3530.00
2023-05-10T07:29:23.640Z,3568.00
2023-05-10T07:30:23.791Z,3561.00
2023-05-10T07:31:23.734Z,3642.00
2023-05-10T07:32:23.952Z,3701.00
2023-05-10T07:33:23.965Z,3743.00
2023-05-10T07:34:23.997Z,3796.00
2023-05-10T07:35:24.964Z,3774.00
2023-05-10T07:36:24.049Z,3727.00
2023-05-10T07:37:24.049Z,3707.00
2023-05-10T07:38:24.103Z,3685.00
2023-05-10T07:39:27.949Z,3679.00
2023-05-10T07:40:24.081Z,3681.00
2023-05-10T07:41:24.435Z,3687.00
2023-05-10T07:42:24.031Z,3677.00
2023-05-10T07:43:24.035Z,3699.00
2023-05-10T07:44:24.053Z,3684.00
2023-05-10T07:45:24.054Z,3713.00
2023-05-10T07:46:24.082Z,3666.00
2023-05-10T07:47:24.075Z,3621.00
2023-05-10T07:48:23.982Z,3664.00
2023-05-10T07:49:24.089Z,3613.00
2023-05-10T07:50:23.996Z,3607.00
2023-05-10T07:51:23.995Z,3565.00
2023-05-10T07:52:24.016Z,3597.00
2023-05-10T07:53:23.947Z,3575.00
2023-05-10T07:54:23.982Z,3562.00
2023-05-10T07:55:24.940Z,3532.00
2023-05-10T07:56:23.986Z,3510.00
2023-05-10T07:57:24.027Z,3503.00
2023-05-10T07:58:24.056Z,3558.00
2023-05-10T07:59:24.150Z,3594.00
2023-05-10T08:00:24.214Z,3675.00
2023-05-10T08:01:24.383Z,3701.00
2023-05-10T08:02:24.273Z,3733.00
2023-05-10T08:03:24.407Z,3756.00
2023-05-10T08:04:24.415Z,3712.00
2023-05-10T08:05:24.499Z,3719.00
2023-05-10T08:06:24.505Z,3750.00
2023-05-10T08:07:24.729Z,3774.00
2023-05-10T08:08:24.625Z,3759.00
2023-05-10T08:09:24.892Z,3751.00
2023-05-10T08:10:24.786Z,3763.00
2023-05-10T08:11:24.792Z,3765.00
2023-05-10T08:12:24.898Z,3774.00
2023-05-10T08:13:25.488Z,3782.00
2023-05-10T08:14:24.968Z,3782.00
2023-05-10T08:15:25.100Z,3793.00
2023-05-10T08:16:25.278Z,3813.00
2023-05-10T08:17:25.181Z,3817.00
2023-05-10T08:18:25.434Z,3793.00
2023-05-10T08:19:25.310Z,3788.00
2023-05-10T08:20:25.375Z,3754.00
2023-05-10T08:21:25.431Z,3737.00
2023-05-10T08:22:25.489Z,3688.00
2023-05-10T08:23:25.537Z,3636.00
2023-05-10T08:24:25.609Z,3648.00
2023-05-10T08:25:25.658Z,3651.00
2023-05-10T08:26:25.705Z,3719.00
2023-05-10T08:27:25.834Z,3805.00
2023-05-10T08:28:25.891Z,3830.00
2023-05-10T08:29:26.808Z,3795.00
2023-05-10T08:30:26.102Z,3784.00
2023-05-10T08:31:26.242Z,3760.00
2023-05-10T08:32:26.272Z,3717.00
2023-05-10T08:33:26.329Z,3630.00
2023-05-10T08:34:26.322Z,3525.00
2023-05-10T08:35:26.343Z,3488.00
2023-05-10T08:36:26.290Z,3493.00
2023-05-10T08:37:26.243Z,3495.00
2023-05-10T08:38:26.260Z,3566.00
2023-05-10T08:39:30.460Z,3544.00
2023-05-10T08:40:26.293Z,3493.00
2023-05-10T08:41:26.291Z,3416.00
2023-05-10T08:42:26.229Z,3405.00
2023-05-10T08:43:26.262Z,3399.00
2023-05-10T08:44:26.319Z,3385.00
2023-05-10T08:45:26.364Z,3375.00
2023-05-10T08:46:26.273Z,3372.00
2023-05-10T08:47:26.267Z,3391.00
2023-05-10T08:48:26.233Z,3400.00
2023-05-10T08:49:26.253Z,3427.00
2023-05-10T08:50:26.595Z,3464.00
2023-05-10T08:51:26.189Z,3450.00
2023-05-10T08:52:26.214Z,3442.00
2023-05-10T08:53:26.212Z,3429.00
2023-05-10T08:54:26.317Z,3336.00
2023-05-10T08:55:26.389Z,3353.00
2023-05-10T08:56:26.386Z,3376.00
2023-05-10T08:57:26.898Z,3281.00
2023-05-10T08:58:26.912Z,3236.00
2023-05-10T08:59:26.558Z,3187.00
2023-05-10T09:00:26.641Z,3153.00
2023-05-10T09:01:26.747Z,3126.00
2023-05-10T09:02:26.749Z,3125.00
2023-05-10T09:03:26.790Z,3139.00
2023-05-10T09:04:26.985Z,3111.00
2023-05-10T09:05:26.966Z,3097.00
2023-05-10T09:06:26.886Z,3078.00
2023-05-10T09:07:26.920Z,3095.00
2023-05-10T09:08:26.928Z,3087.00
2023-05-10T09:09:26.926Z,3097.00
2023-05-10T09:10:26.959Z,3072.00
2023-05-10T09:11:26.950Z,3069.00
2023-05-10T09:12:26.960Z,3067.00
2023-05-10T09:13:26.938Z,3074.00
2023-05-10T09:14:26.970Z,3082.00
2023-05-10T09:15:27.135Z,3103.00
2023-05-10T09:16:27.017Z,3094.00
2023-05-10T09:17:27.079Z,3131.00
2023-05-10T09:18:28.195Z,3177.00
2023-05-10T09:19:27.005Z,3237.00
2023-05-10T09:20:27.017Z,3149.00
2023-05-10T09:21:27.422Z,3191.00
2023-05-10T09:22:27.128Z,3190.00
2023-05-10T09:23:27.175Z,3177.00
2023-05-10T09:24:27.283Z,3178.00
2023-05-10T09:25:27.352Z,3154.00
2023-05-10T09:26:27.399Z,3182.00
2023-05-10T09:27:27.476Z,3213.00
2023-05-10T09:28:27.921Z,3194.00
2023-05-10T09:29:27.601Z,3119.00
2023-05-10T09:30:27.672Z,3136.00
2023-05-10T09:31:27.742Z,3206.00
2023-05-10T09:32:27.792Z,3251.00
2023-05-10T09:33:27.846Z,3322.00
2023-05-10T09:34:27.869Z,3369.00
2023-05-10T09:35:29.653Z,3407.00
2023-05-10T09:36:28.205Z,3415.00
2023-05-10T09:37:28.038Z,3406.00
2023-05-10T09:38:28.467Z,3381.00
2023-05-10T09:39:28.222Z,3370.00
2023-05-10T09:40:28.348Z,3379.00
2023-05-10T09:41:28.292Z,3324.00
2023-05-10T09:42:28.330Z,3345.00
2023-05-10T09:43:28.445Z,3334.00
2023-05-10T09:44:28.450Z,3337.00
2023-05-10T09:45:28.535Z,3356.00
2023-05-10T09:46:28.571Z,3371.00
2023-05-10T09:47:28.641Z,3322.00
2023-05-10T09:48:28.647Z,3306.00
2023-05-10T09:49:28.694Z,3347.00
2023-05-10T09:50:28.754Z,3361.00
2023-05-10T09:51:28.807Z,3390.00
2023-05-10T09:52:28.920Z,3319.00
2023-05-10T09:53:28.882Z,3289.00
2023-05-10T09:54:28.999Z,3362.00
2023-05-10T09:55:29.044Z,3369.00
2023-05-10T09:56:29.013Z,3362.00
2023-05-10T09:57:29.926Z,3363.00
2023-05-10T09:58:30.980Z,3334.00
2023-05-10T09:59:29.185Z,3339.00
2023-05-10T10:00:29.205Z,3337.00
2023-05-10T10:01:29.280Z,3330.00
2023-05-10T10:02:29.401Z,3320.00
2023-05-10T10:03:30.351Z,3332.00
2023-05-10T10:04:29.581Z,3270.00
2023-05-10T10:05:29.417Z,3236.00
2023-05-10T10:06:30.640Z,3248.00
2023-05-10T10:07:29.590Z,3231.00
2023-05-10T10:08:29.640Z,3180.00
2023-05-10T10:09:29.742Z,3186.00
2023-05-10T10:10:29.760Z,3132.00
2023-05-10T10:11:29.720Z,3149.00
2023-05-10T10:12:29.777Z,3120.00
2023-05-10T10:13:29.880Z,3063.00
2023-05-10T10:14:29.915Z,3062.00
2023-05-10T10:15:30.500Z,3063.00
2023-05-10T10:16:30.107Z,3018.00
2023-05-10T10:17:30.098Z,3038.00
2023-05-10T10:18:30.623Z,3017.00
2023-05-10T10:19:30.511Z,3020.00
2023-05-10T10:20:30.204Z,3028.00
2023-05-10T10:21:30.235Z,3094.00
2023-05-10T10:22:30.443Z,3093.00
2023-05-10T10:23:30.385Z,3100.00
2023-05-10T10:24:30.470Z,3112.00
2023-05-10T10:25:30.492Z,3080.00
2023-05-10T10:26:30.999Z,3053.00
2023-05-10T10:27:30.607Z,3005.00
2023-05-10T10:28:30.625Z,3060.00
2023-05-10T10:29:30.676Z,3098.00
2023-05-10T10:30:30.705Z,3100.00
2023-05-10T10:31:30.836Z,3122.00
2023-05-10T10:32:30.882Z,3067.00
2023-05-10T10:33:30.896Z,3104.00
2023-05-10T10:34:30.904Z,3078.00
2023-05-10T10:35:30.962Z,3054.00
2023-05-10T10:36:31.026Z,2977.00
2023-05-10T10:37:31.035Z,2966.00
2023-05-10T10:38:31.152Z,3012.00
2023-05-10T10:39:31.088Z,3067.00
2023-05-10T10:40:33.527Z,2930.00
2023-05-10T10:41:31.466Z,2955.00
2023-05-10T10:42:31.475Z,2955.00
2023-05-10T10:43:31.278Z,2941.00
2023-05-10T10:44:31.619Z,3039.00
2023-05-10T10:45:31.113Z,3061.00
2023-05-10T10:46:31.226Z,3106.00
2023-05-10T10:47:31.208Z,3046.00
2023-05-10T10:48:31.151Z,2997.00
2023-05-10T10:49:31.106Z,2963.00
2023-05-10T10:50:31.050Z,2897.00
2023-05-10T10:51:31.069Z,2749.00
2023-05-10T10:52:31.116Z,2659.00
2023-05-10T10:53:31.194Z,2835.00
2023-05-10T10:54:31.042Z,2746.00
2023-05-10T10:55:31.042Z,2749.00
2023-05-10T10:56:31.045Z,2723.00
2023-05-10T10:57:31.003Z,2556.00
2023-05-10T10:58:31.219Z,2586.00
2023-05-10T10:59:31.026Z,2578.00
2023-05-10T11:00:31.029Z,2622.00
2023-05-10T11:01:31.101Z,2724.00
2023-05-10T11:02:31.421Z,2763.00
2023-05-10T11:03:31.050Z,2731.00
2023-05-10T11:04:31.025Z,2787.00
2023-05-10T11:05:31.544Z,2881.00
2023-05-10T11:06:30.949Z,3004.00
2023-05-10T11:07:30.964Z,3027.00
2023-05-10T11:08:31.508Z,3018.00
2023-05-10T11:09:30.940Z,3045.00
2023-05-10T11:10:30.999Z,3084.00
2023-05-10T11:11:30.993Z,3107.00
2023-05-10T11:12:30.972Z,3160.00
2023-05-10T11:13:30.916Z,3213.00
2023-05-10T11:14:30.915Z,3215.00
2023-05-10T11:15:30.988Z,3230.00
2023-05-10T11:16:30.995Z,3251.00
2023-05-10T11:17:31.114Z,3199.00
2023-05-10T11:18:30.922Z,3127.00
2023-05-10T11:19:30.836Z,2951.00
2023-05-10T11:20:30.858Z,2980.00
2023-05-10T11:21:30.861Z,3106.00
2023-05-10T11:22:30.818Z,3184.00
2023-05-10T11:23:30.845Z,3208.00
2023-05-10T11:24:30.774Z,3239.00
2023-05-10T11:25:30.841Z,3146.00
2023-05-10T11:26:30.790Z,3069.00
2023-05-10T11:27:30.802Z,3062.00
2023-05-10T11:28:30.808Z,3155.00
2023-05-10T11:29:30.802Z,3093.00
2023-05-10T11:30:30.918Z,3148.00
2023-05-10T11:31:31.053Z,3037.00
2023-05-10T11:32:30.936Z,3022.00
2023-05-10T11:33:30.902Z,3023.00
2023-05-10T11:34:31.021Z,2928.00
2023-05-10T11:35:31.006Z,3040.00
2023-05-10T11:36:31.015Z,3033.00
2023-05-10T11:37:31.061Z,2963.00
2023-05-10T11:38:31.138Z,3050.00
2023-05-10T11:39:31.151Z,2985.00
2023-05-10T11:40:31.148Z,2895.00
2023-05-10T11:41:31.179Z,2901.00
2023-05-10T11:42:31.236Z,2818.00
2023-05-10T11:43:31.283Z,2848.00
2023-05-10T11:44:31.340Z,2689.00
2023-05-10T11:45:31.322Z,2775.00
2023-05-10T11:46:31.391Z,2859.00
2023-05-10T11:47:31.449Z,2729.00
2023-05-10T11:48:31.449Z,2846.00
2023-05-10T11:49:31.463Z,2904.00
2023-05-10T11:50:31.490Z,2816.00
2023-05-10T11:51:31.497Z,2891.00
2023-05-10T11:52:31.498Z,2850.00
2023-05-10T11:53:31.569Z,2886.00
2023-05-10T11:54:31.612Z,2868.00
2023-05-10T11:55:31.654Z,2824.00
2023-05-10T11:56:31.691Z,2745.00
2023-05-10T11:57:31.684Z,2746.00
2023-05-10T11:58:31.779Z,2792.00
2023-05-10T11:59:31.798Z,2823.00
2023-05-10T12:00:31.853Z,2851.00
2023-05-10T12:01:31.855Z,2857.00
2023-05-10T12:02:31.978Z,2998.00
2023-05-10T12:03:32.146Z,2988.00
2023-05-10T12:04:32.069Z,2940.00
2023-05-10T12:05:32.069Z,2972.00